createdAt,value
2022-12-31T00:02:12.162Z,5.65
2022-12-31T00:04:40.513Z,5.62
2022-12-31T00:07:08.715Z,5.63
2022-12-31T00:09:36.929Z,5.62
2022-12-31T00:12:06.850Z,5.56
2022-12-31T00:14:35.044Z,5.52
2022-12-31T00:17:03.311Z,5.49
2022-12-31T00:19:31.550Z,5.49
2022-12-31T00:21:59.774Z,5.51
2022-12-31T00:24:31.073Z,5.52
2022-12-31T00:26:59.423Z,5.59
2022-12-31T00:29:28.964Z,5.62
2022-12-31T00:31:57.256Z,5.68
2022-12-31T00:34:25.493Z,5.70
2022-12-31T00:36:54.149Z,5.69
2022-12-31T00:39:22.382Z,5.71
2022-12-31T00:41:50.585Z,5.72
2022-12-31T00:44:18.892Z,5.68
2022-12-31T00:46:48.642Z,5.65
2022-12-31T00:49:17.331Z,5.64
2022-12-31T00:51:46.747Z,5.66
2022-12-31T00:54:15.471Z,5.72
2022-12-31T00:56:43.734Z,5.75
2022-12-31T00:59:11.930Z,5.78
2022-12-31T01:01:41.590Z,5.86
2022-12-31T01:04:13.956Z,5.92
2022-12-31T01:06:42.800Z,5.97
2022-12-31T01:09:11.880Z,6.00
2022-12-31T01:11:40.204Z,6.05
2022-12-31T01:14:10.541Z,6.04
2022-12-31T01:16:42.680Z,6.05
2022-12-31T01:19:14.442Z,6.09
2022-12-31T01:21:43.844Z,6.10
2022-12-31T01:24:12.796Z,6.10
2022-12-31T01:26:41.484Z,6.09
2022-12-31T01:29:10.863Z,6.06
2022-12-31T01:31:39.916Z,6.04
2022-12-31T01:34:09.082Z,6.07
2022-12-31T01:36:39.521Z,6.17
2022-12-31T01:39:09.499Z,6.24
2022-12-31T01:41:40.027Z,6.28
2022-12-31T01:44:41.266Z,6.31
2022-12-31T01:47:15.960Z,6.37
2022-12-31T01:49:48.943Z,6.44
2022-12-31T01:52:22.443Z,6.47
2022-12-31T01:54:55.686Z,6.53
2022-12-31T01:57:27.019Z,6.58
2022-12-31T01:59:56.706Z,6.61
2022-12-31T02:02:25.307Z,6.62
2022-12-31T02:04:55.641Z,6.63
2022-12-31T02:07:25.580Z,6.70
2022-12-31T02:09:55.381Z,6.77
2022-12-31T02:12:24.286Z,6.83
2022-12-31T02:14:55.454Z,6.84
2022-12-31T02:17:32.459Z,6.86
2022-12-31T02:20:32.821Z,6.86
2022-12-31T02:23:25.327Z,6.85
2022-12-31T02:26:20.504Z,6.86
2022-12-31T02:29:25.705Z,6.90
2022-12-31T02:32:01.449Z,6.92
2022-12-31T02:34:35.045Z,6.93
2022-12-31T02:37:06.171Z,6.90
2022-12-31T02:39:35.654Z,6.90
2022-12-31T02:42:04.521Z,6.90
2022-12-31T02:44:35.287Z,6.90
2022-12-31T02:47:18.873Z,6.87
2022-12-31T02:49:56.613Z,6.84
2022-12-31T02:52:35.943Z,6.81
2022-12-31T02:55:15.672Z,6.79
2022-12-31T02:57:52.635Z,6.74
2022-12-31T03:00:38.585Z,6.73
2022-12-31T03:03:10.232Z,6.70
2022-12-31T03:05:41.674Z,6.69
2022-12-31T03:08:10.267Z,6.67
2022-12-31T03:10:38.545Z,6.64
2022-12-31T03:13:05.853Z,6.63
2022-12-31T03:15:35.425Z,6.63
2022-12-31T03:18:05.924Z,6.65
2022-12-31T03:20:55.113Z,6.65
2022-12-31T03:23:26.034Z,6.63
2022-12-31T03:25:55.039Z,6.62
2022-12-31T03:28:25.168Z,6.59
2022-12-31T03:30:55.275Z,6.58
2022-12-31T03:33:24.380Z,6.57
2022-12-31T03:35:54.557Z,6.54
2022-12-31T03:38:22.793Z,6.52
2022-12-31T03:40:53.103Z,6.51
2022-12-31T03:43:22.621Z,6.48
2022-12-31T03:45:52.654Z,6.47
2022-12-31T03:48:22.305Z,6.48
2022-12-31T03:50:50.691Z,6.48
2022-12-31T03:53:20.684Z,6.49
2022-12-31T03:55:52.351Z,6.49
2022-12-31T03:58:20.527Z,6.48
2022-12-31T04:00:48.684Z,6.46
2022-12-31T04:03:17.055Z,6.47
2022-12-31T04:05:45.334Z,6.46
2022-12-31T04:08:13.581Z,6.45
2022-12-31T04:10:43.090Z,6.45
2022-12-31T04:13:11.325Z,6.47
2022-12-31T04:15:39.453Z,6.46
2022-12-31T04:18:07.711Z,6.45
2022-12-31T04:20:35.850Z,6.44
2022-12-31T04:23:04.237Z,6.49
2022-12-31T04:25:32.449Z,6.48
2022-12-31T04:28:02.001Z,6.47
2022-12-31T04:30:30.250Z,6.47
2022-12-31T04:32:58.503Z,6.46
2022-12-31T04:35:26.662Z,6.48
2022-12-31T04:37:54.870Z,6.50
2022-12-31T04:40:24.135Z,6.53
2022-12-31T04:42:52.304Z,6.55
2022-12-31T04:45:21.828Z,6.55
2022-12-31T04:47:50.016Z,6.55
2022-12-31T04:50:18.320Z,6.59
2022-12-31T04:52:46.630Z,6.58
2022-12-31T04:55:14.833Z,6.59
2022-12-31T04:57:43.109Z,6.60
2022-12-31T05:00:12.206Z,6.64
2022-12-31T05:02:41.999Z,6.73
2022-12-31T05:05:10.707Z,6.78
2022-12-31T05:07:39.022Z,6.81
2022-12-31T05:10:07.956Z,6.85
2022-12-31T05:12:36.283Z,7.01
2022-12-31T05:15:04.634Z,7.14
2022-12-31T05:17:32.860Z,7.20
2022-12-31T05:20:02.323Z,7.28
2022-12-31T05:22:30.632Z,7.39
2022-12-31T05:24:59.792Z,7.51
2022-12-31T05:27:31.329Z,7.58
2022-12-31T05:30:00.087Z,7.67
2022-12-31T05:32:28.325Z,7.74
2022-12-31T05:34:56.941Z,7.83
2022-12-31T05:37:26.794Z,7.87
2022-12-31T05:39:55.062Z,7.91
2022-12-31T05:42:23.261Z,7.96
2022-12-31T05:44:51.470Z,8.04
2022-12-31T05:47:19.717Z,8.09
2022-12-31T05:49:47.951Z,8.15
2022-12-31T05:52:16.215Z,8.24
2022-12-31T05:54:45.788Z,8.33
2022-12-31T05:57:14.215Z,8.39
2022-12-31T05:59:42.412Z,8.39
2022-12-31T06:02:10.520Z,8.46
2022-12-31T06:04:38.790Z,8.47
2022-12-31T06:07:06.936Z,8.48
2022-12-31T06:09:35.117Z,8.52
2022-12-31T06:12:05.044Z,8.51
2022-12-31T06:14:35.014Z,8.53
2022-12-31T06:17:03.435Z,8.59
2022-12-31T06:19:31.863Z,8.63
2022-12-31T06:22:00.125Z,8.66
2022-12-31T06:24:28.384Z,8.63
2022-12-31T06:26:56.553Z,8.63
2022-12-31T06:29:26.154Z,8.64
2022-12-31T06:31:54.181Z,8.71
2022-12-31T06:34:22.354Z,8.80
2022-12-31T06:36:50.578Z,8.76
2022-12-31T06:39:18.737Z,8.78
2022-12-31T06:41:46.897Z,8.83
2022-12-31T06:44:15.508Z,8.87
2022-12-31T06:46:45.143Z,8.89
2022-12-31T06:49:13.584Z,8.89
2022-12-31T06:51:42.487Z,8.93
2022-12-31T06:54:10.673Z,8.96
2022-12-31T06:56:39.654Z,8.92
2022-12-31T06:59:08.104Z,8.93
2022-12-31T07:01:50.375Z,8.98
2022-12-31T07:04:48.534Z,8.99
2022-12-31T07:07:22.800Z,9.10
2022-12-31T07:10:01.637Z,9.14
2022-12-31T07:12:41.876Z,9.16
2022-12-31T07:15:15.948Z,9.20
2022-12-31T07:17:54.386Z,9.21
2022-12-31T07:20:23.277Z,9.19
2022-12-31T07:22:51.851Z,9.17
2022-12-31T07:25:22.022Z,9.13
2022-12-31T07:28:04.208Z,9.13
2022-12-31T07:30:41.686Z,9.14
2022-12-31T07:33:29.145Z,9.12
2022-12-31T07:36:09.901Z,9.11
2022-12-31T07:38:42.852Z,9.15
2022-12-31T07:41:18.027Z,9.17
2022-12-31T07:43:57.526Z,9.17
2022-12-31T07:46:34.873Z,9.19
2022-12-31T07:49:10.996Z,9.22
2022-12-31T07:51:40.344Z,9.23
2022-12-31T07:54:13.578Z,9.20
2022-12-31T07:56:43.234Z,9.25
2022-12-31T07:59:24.492Z,9.27
2022-12-31T08:02:02.577Z,9.31
2022-12-31T08:04:43.628Z,9.22
2022-12-31T08:07:22.204Z,9.21
2022-12-31T08:09:58.234Z,9.26
2022-12-31T08:12:28.811Z,9.25
2022-12-31T08:14:57.335Z,9.19
2022-12-31T08:17:25.903Z,9.25
2022-12-31T08:19:55.987Z,9.27
2022-12-31T08:22:36.205Z,9.28
2022-12-31T08:25:16.869Z,9.22
2022-12-31T08:27:56.197Z,9.17
2022-12-31T08:30:28.116Z,9.19
2022-12-31T08:33:07.819Z,9.26
2022-12-31T08:35:53.396Z,9.27
2022-12-31T08:38:32.068Z,9.30
2022-12-31T08:41:07.749Z,9.26
2022-12-31T08:43:50.386Z,9.23
2022-12-31T08:46:24.518Z,9.27
2022-12-31T08:48:52.947Z,9.25
2022-12-31T08:51:25.351Z,9.30
2022-12-31T08:53:55.356Z,9.26
2022-12-31T08:56:30.747Z,9.25
2022-12-31T08:59:13.755Z,9.18
2022-12-31T09:01:57.473Z,9.06
2022-12-31T09:04:35.769Z,8.96
2022-12-31T09:07:06.771Z,8.90
2022-12-31T09:09:47.379Z,8.88
2022-12-31T09:12:23.724Z,8.84
2022-12-31T09:14:59.556Z,8.81
2022-12-31T09:17:39.106Z,8.78
2022-12-31T09:20:15.250Z,8.77
2022-12-31T09:22:45.087Z,8.75
2022-12-31T09:25:15.582Z,8.76
2022-12-31T09:27:53.007Z,8.82
2022-12-31T09:30:21.533Z,8.86
2022-12-31T09:33:01.366Z,8.94
2022-12-31T09:35:38.057Z,8.98
2022-12-31T09:38:16.468Z,8.99
2022-12-31T09:41:14.567Z,9.04
2022-12-31T09:44:14.565Z,9.09
2022-12-31T09:47:17.373Z,9.13
2022-12-31T09:50:22.923Z,9.12
2022-12-31T09:53:05.264Z,9.11
2022-12-31T09:55:41.118Z,9.14
2022-12-31T09:58:26.716Z,9.21
2022-12-31T10:01:00.943Z,9.25
2022-12-31T10:03:46.892Z,9.24
2022-12-31T10:06:23.212Z,9.27
2022-12-31T10:09:09.641Z,9.28
2022-12-31T10:11:55.928Z,9.26
2022-12-31T10:14:38.101Z,9.30
2022-12-31T10:17:20.777Z,9.33
2022-12-31T10:20:06.696Z,9.36
2022-12-31T10:23:05.208Z,9.37
2022-12-31T10:25:47.707Z,9.40
2022-12-31T10:28:31.286Z,9.44
2022-12-31T10:31:14.027Z,9.43
2022-12-31T10:33:45.835Z,9.41
2022-12-31T10:36:21.974Z,9.40
2022-12-31T10:39:07.515Z,9.44
2022-12-31T10:42:13.817Z,9.46
2022-12-31T10:45:14.041Z,9.45
2022-12-31T10:48:07.074Z,9.42
2022-12-31T10:50:57.638Z,9.40
2022-12-31T10:53:47.284Z,9.37
2022-12-31T10:56:51.589Z,9.35
2022-12-31T10:59:41.900Z,9.34
2022-12-31T11:02:32.579Z,9.34
2022-12-31T11:05:31.090Z,9.29
2022-12-31T11:08:13.708Z,9.25
2022-12-31T11:11:08.751Z,9.22
2022-12-31T11:14:06.676Z,9.24
2022-12-31T11:16:47.116Z,9.30
2022-12-31T11:19:26.008Z,9.34
2022-12-31T11:22:13.578Z,9.35
2022-12-31T11:25:01.201Z,9.35
2022-12-31T11:27:49.294Z,9.31
2022-12-31T11:30:23.753Z,9.26
2022-12-31T11:33:11.836Z,9.24
2022-12-31T11:35:57.562Z,9.21
2022-12-31T11:38:30.264Z,9.21
2022-12-31T11:41:06.455Z,9.21
2022-12-31T11:43:40.862Z,9.20
2022-12-31T11:46:39.908Z,9.19
2022-12-31T11:49:22.376Z,9.21
2022-12-31T11:52:11.994Z,9.20
2022-12-31T11:55:07.008Z,9.17
2022-12-31T11:57:37.095Z,9.14
2022-12-31T12:00:16.733Z,9.08
2022-12-31T12:02:48.979Z,9.07
2022-12-31T12:05:20.233Z,9.05
2022-12-31T12:07:50.299Z,9.05
2022-12-31T12:10:28.019Z,9.04
2022-12-31T12:13:01.844Z,9.05
2022-12-31T12:15:33.184Z,9.05
2022-12-31T12:18:07.966Z,9.07
2022-12-31T12:20:39.346Z,9.10
2022-12-31T12:23:18.803Z,9.11
2022-12-31T12:25:47.206Z,9.14
2022-12-31T12:28:23.684Z,9.14
2022-12-31T12:30:56.664Z,9.13
2022-12-31T12:33:25.539Z,9.12
2022-12-31T12:35:53.684Z,9.13
2022-12-31T12:38:24.674Z,9.13
2022-12-31T12:40:57.249Z,9.11
2022-12-31T12:43:28.226Z,9.09
2022-12-31T12:46:01.669Z,9.10
2022-12-31T12:48:37.739Z,9.09
2022-12-31T12:51:19.145Z,9.12
2022-12-31T12:53:57.300Z,9.13
2022-12-31T12:56:38.359Z,9.13
2022-12-31T12:59:35.776Z,9.11
2022-12-31T13:02:26.957Z,9.09
2022-12-31T13:05:11.905Z,9.08
2022-12-31T13:07:52.385Z,9.06
2022-12-31T13:10:43.997Z,9.04
2022-12-31T13:13:25.251Z,9.02
2022-12-31T13:16:01.360Z,8.99
2022-12-31T13:18:42.970Z,8.98
2022-12-31T13:21:27.777Z,8.95
2022-12-31T13:24:01.703Z,8.95
2022-12-31T13:26:35.572Z,8.92
2022-12-31T13:29:07.098Z,8.89
2022-12-31T13:31:38.826Z,8.87
2022-12-31T13:34:14.635Z,8.82
2022-12-31T13:36:44.996Z,8.80
2022-12-31T13:39:20.517Z,8.74
2022-12-31T13:41:59.904Z,8.71
2022-12-31T13:44:32.160Z,8.69
2022-12-31T13:47:06.187Z,8.68
2022-12-31T13:49:43.295Z,8.66
2022-12-31T13:52:22.963Z,8.66
2022-12-31T13:54:57.950Z,8.64
2022-12-31T13:57:43.441Z,8.62
2022-12-31T14:00:21.502Z,8.62
2022-12-31T14:02:57.962Z,8.61
2022-12-31T14:05:33.304Z,8.59
2022-12-31T14:08:03.912Z,8.59
2022-12-31T14:10:47.299Z,8.59
2022-12-31T14:13:35.014Z,8.57
2022-12-31T14:16:14.397Z,8.57
2022-12-31T14:18:50.642Z,8.53
2022-12-31T14:21:26.540Z,8.53
2022-12-31T14:24:07.546Z,8.49
2022-12-31T14:26:42.869Z,8.46
2022-12-31T14:29:28.114Z,8.44
2022-12-31T14:32:17.264Z,8.41
2022-12-31T14:34:57.361Z,8.39
2022-12-31T14:37:38.908Z,8.36
2022-12-31T14:40:19.385Z,8.32
2022-12-31T14:43:04.667Z,8.29
2022-12-31T14:45:47.417Z,8.25
2022-12-31T14:48:30.372Z,8.22
2022-12-31T14:51:01.774Z,8.19
2022-12-31T14:53:31.538Z,8.16
2022-12-31T14:56:01.855Z,8.15
2022-12-31T14:58:33.939Z,8.13
2022-12-31T15:01:08.839Z,8.11
2022-12-31T15:03:45.541Z,8.10
2022-12-31T15:06:36.933Z,8.10
2022-12-31T15:09:16.255Z,8.09
2022-12-31T15:12:01.771Z,8.07
2022-12-31T15:14:47.836Z,8.06
2022-12-31T15:17:28.948Z,8.04
2022-12-31T15:20:20.404Z,8.01
2022-12-31T15:22:50.751Z,7.99
2022-12-31T15:25:23.877Z,7.96
2022-12-31T15:27:53.106Z,7.94
2022-12-31T15:30:43.146Z,7.91
2022-12-31T15:33:23.465Z,7.91
2022-12-31T15:35:54.278Z,7.89
2022-12-31T15:38:41.555Z,7.89
2022-12-31T15:41:25.395Z,7.89
2022-12-31T15:43:59.040Z,7.87
2022-12-31T15:46:29.165Z,7.86
2022-12-31T15:49:05.789Z,7.84
2022-12-31T15:51:44.932Z,7.83
2022-12-31T15:54:24.754Z,7.81
2022-12-31T15:56:54.674Z,7.80
2022-12-31T15:59:23.947Z,7.80
2022-12-31T16:01:52.308Z,7.78
2022-12-31T16:04:24.209Z,7.79
2022-12-31T16:06:53.191Z,7.78
2022-12-31T16:09:24.638Z,7.78
2022-12-31T16:11:54.306Z,7.77
2022-12-31T16:14:26.717Z,7.78
2022-12-31T16:16:57.070Z,7.77
2022-12-31T16:19:33.251Z,7.78
2022-12-31T16:22:08.887Z,7.78
2022-12-31T16:24:49.012Z,7.85
2022-12-31T16:27:27.996Z,7.90
2022-12-31T16:30:00.654Z,7.92
2022-12-31T16:32:35.888Z,8.01
2022-12-31T16:35:23.809Z,8.09
2022-12-31T16:38:04.054Z,8.17
2022-12-31T16:40:32.271Z,8.26
2022-12-31T16:43:00.376Z,8.35
2022-12-31T16:45:34.260Z,8.38
2022-12-31T16:48:16.602Z,8.37
2022-12-31T16:50:48.476Z,8.37
2022-12-31T16:53:21.001Z,8.36
2022-12-31T16:55:54.905Z,8.36
2022-12-31T16:58:28.173Z,8.36
2022-12-31T17:01:03.008Z,8.39
2022-12-31T17:03:31.616Z,8.44
2022-12-31T17:06:13.722Z,8.45
2022-12-31T17:08:43.619Z,8.48
2022-12-31T17:11:34.341Z,8.46
2022-12-31T17:14:12.898Z,8.51
2022-12-31T17:16:59.565Z,8.52
2022-12-31T17:19:37.400Z,8.54
2022-12-31T17:22:11.696Z,8.55
2022-12-31T17:24:41.307Z,8.55
2022-12-31T17:27:10.722Z,8.59
2022-12-31T17:29:38.971Z,8.59
2022-12-31T17:32:08.778Z,8.58
2022-12-31T17:34:41.283Z,8.60
2022-12-31T17:37:19.454Z,8.62
2022-12-31T17:39:50.818Z,8.64
2022-12-31T17:42:38.505Z,8.66
2022-12-31T17:45:09.465Z,8.66
2022-12-31T17:47:40.075Z,8.63
2022-12-31T17:50:19.404Z,8.62
2022-12-31T17:52:49.631Z,8.61
2022-12-31T17:55:18.103Z,8.60
2022-12-31T17:57:52.016Z,8.59
2022-12-31T18:00:22.437Z,8.62
2022-12-31T18:02:50.864Z,8.61
2022-12-31T18:05:21.966Z,8.57
2022-12-31T18:07:51.773Z,8.53
2022-12-31T18:10:22.307Z,8.51
2022-12-31T18:12:50.925Z,8.46
2022-12-31T18:15:21.817Z,8.46
2022-12-31T18:17:50.999Z,8.44
2022-12-31T18:20:19.202Z,8.43
2022-12-31T18:22:47.470Z,8.42
2022-12-31T18:25:20.006Z,8.43
2022-12-31T18:27:48.771Z,8.46
2022-12-31T18:30:17.772Z,8.44
2022-12-31T18:32:46.520Z,8.41
2022-12-31T18:35:40.642Z,8.39
2022-12-31T18:38:08.020Z,8.36
2022-12-31T18:40:40.763Z,8.36
2022-12-31T18:43:14.284Z,8.37
2022-12-31T18:45:42.597Z,8.37
2022-12-31T18:48:10.840Z,8.39
2022-12-31T18:50:39.334Z,8.37
2022-12-31T18:53:08.335Z,8.35
2022-12-31T18:55:42.193Z,8.35
2022-12-31T18:58:11.624Z,8.34
2022-12-31T19:00:39.960Z,8.34
2022-12-31T19:03:08.395Z,8.28
2022-12-31T19:05:38.497Z,8.24
2022-12-31T19:08:06.791Z,8.22
2022-12-31T19:10:35.362Z,8.20
2022-12-31T19:13:05.095Z,8.18
2022-12-31T19:15:35.615Z,8.14
2022-12-31T19:18:04.142Z,8.10
2022-12-31T19:20:32.664Z,8.09
2022-12-31T19:23:00.819Z,8.14
2022-12-31T19:25:33.676Z,8.16
2022-12-31T19:28:02.395Z,8.19
2022-12-31T19:30:33.524Z,8.15
2022-12-31T19:33:02.067Z,8.11
2022-12-31T19:35:30.245Z,8.11
2022-12-31T19:37:58.425Z,8.11
2022-12-31T19:40:28.918Z,8.07
2022-12-31T19:42:58.566Z,8.06
2022-12-31T19:45:28.790Z,8.00
2022-12-31T19:47:58.328Z,7.97
2022-12-31T19:50:29.240Z,7.96
2022-12-31T19:53:00.020Z,7.88
2022-12-31T19:55:28.228Z,7.85
2022-12-31T19:57:56.564Z,7.80
2022-12-31T20:00:24.700Z,7.74
2022-12-31T20:02:53.158Z,7.68
2022-12-31T20:05:23.009Z,7.66
2022-12-31T20:07:51.424Z,7.68
2022-12-31T20:10:19.774Z,7.72
2022-12-31T20:12:47.925Z,7.75
2022-12-31T20:15:16.167Z,7.77
2022-12-31T20:17:44.645Z,7.76
2022-12-31T20:20:13.115Z,7.75
2022-12-31T20:22:42.636Z,7.76
2022-12-31T20:25:10.904Z,7.75
2022-12-31T20:27:39.690Z,7.71
2022-12-31T20:30:09.797Z,7.66
2022-12-31T20:32:38.043Z,7.64
2022-12-31T20:35:06.958Z,7.60
2022-12-31T20:37:35.122Z,7.54
2022-12-31T20:40:04.945Z,7.46
2022-12-31T20:42:33.093Z,7.40
2022-12-31T20:45:01.722Z,7.40
2022-12-31T20:47:29.824Z,7.40
2022-12-31T20:50:13.404Z,7.37
2022-12-31T20:52:42.770Z,7.33
2022-12-31T20:55:13.846Z,7.28
2022-12-31T20:57:42.073Z,7.29
2022-12-31T21:00:12.301Z,7.32
2022-12-31T21:02:42.520Z,7.29
2022-12-31T21:05:12.170Z,7.28
2022-12-31T21:07:40.488Z,7.26
2022-12-31T21:10:09.340Z,7.24
2022-12-31T21:12:43.667Z,7.20
2022-12-31T21:15:12.699Z,7.24
2022-12-31T21:17:40.936Z,7.24
2022-12-31T21:20:09.998Z,7.26
2022-12-31T21:22:38.115Z,7.26
2022-12-31T21:25:07.075Z,7.25
2022-12-31T21:27:38.302Z,7.27
2022-12-31T21:30:22.377Z,7.24
2022-12-31T21:32:50.587Z,7.22
2022-12-31T21:38:08.617Z,7.20
2022-12-31T21:40:36.764Z,7.14
2022-12-31T21:43:06.286Z,7.10
2022-12-31T21:45:34.489Z,7.09
2022-12-31T21:48:20.647Z,7.07
2022-12-31T21:50:50.441Z,7.04
2022-12-31T21:53:24.519Z,6.97
2022-12-31T21:56:12.380Z,6.95
2022-12-31T21:58:43.688Z,6.92
2022-12-31T22:01:35.880Z,6.98
2022-12-31T22:04:04.601Z,7.01
2022-12-31T22:06:34.291Z,7.02
2022-12-31T22:09:02.540Z,7.03
2022-12-31T22:11:30.675Z,7.06
2022-12-31T22:14:00.159Z,7.08
2022-12-31T22:16:28.460Z,7.12
2022-12-31T22:18:57.117Z,7.16
2022-12-31T22:21:26.714Z,7.10
2022-12-31T22:23:58.709Z,7.12
2022-12-31T22:26:29.411Z,7.08
2022-12-31T22:28:59.543Z,7.04
2022-12-31T22:31:31.135Z,6.97
2022-12-31T22:34:00.188Z,6.92
2022-12-31T22:36:28.337Z,6.92
2022-12-31T22:38:58.665Z,6.94
2022-12-31T22:41:28.249Z,6.93
2022-12-31T22:44:03.783Z,6.89
2022-12-31T22:46:35.208Z,6.86
2022-12-31T22:49:04.879Z,6.87
2022-12-31T22:51:57.359Z,6.85
2022-12-31T22:54:22.187Z,6.85
2022-12-31T22:56:50.365Z,6.86
2022-12-31T22:59:18.602Z,6.83
2022-12-31T23:01:48.137Z,6.80
2022-12-31T23:04:16.635Z,6.79
2022-12-31T23:06:47.354Z,6.78
2022-12-31T23:09:35.101Z,6.78
2022-12-31T23:12:04.000Z,6.74
2022-12-31T23:14:49.959Z,6.69
2022-12-31T23:17:38.748Z,6.66
2022-12-31T23:20:26.857Z,6.65
2022-12-31T23:23:12.572Z,6.78
2022-12-31T23:25:42.787Z,6.83
2022-12-31T23:28:13.379Z,6.81
2022-12-31T23:30:42.890Z,6.84
2022-12-31T23:33:16.440Z,6.87
2022-12-31T23:35:44.857Z,6.99
2022-12-31T23:38:13.270Z,7.00
2022-12-31T23:40:41.480Z,6.96
2022-12-31T23:43:11.404Z,6.88
2022-12-31T23:45:39.625Z,6.74
2022-12-31T23:48:07.819Z,6.65
2022-12-31T23:50:37.358Z,6.60
2022-12-31T23:53:05.480Z,6.59
2022-12-31T23:55:33.930Z,6.58
2022-12-31T23:58:02.144Z,6.54
